# Fri May 02 08:35:27 PDT 2008
#
# DATABASE
# jdbc:jtds:sqlserver://solstice.shore.mbari.org:1433/VARS
#
# QUERY
# SELECT ObservationID_FK,  Associations,  CameraDirection,  ConceptName,  Depth,  DiveNumber,  HighdefTimeCode,  Image,  Latitude,  Longitude,  Oxygen,  RecordedDate,  RovName,  Salinity,  TapeTimeCode,  Temperature,  videoArchiveName FROM Annotations WHERE   DiveNumber >= 3149 AND   DiveNumber <= 3149 AND   RovName LIKE '%Ventana%' 
#
# TOTAL RECORDS: 146
Associations	CameraDirection	ConceptName	Depth	DiveNumber	HighdefTimeCode	Image	Latitude	Longitude	ObservationID_FK	Oxygen	RecordedDate	RovName	Salinity	TapeTimeCode	Temperature	class	family	genus	infraclass	kingdom	order	phylum	subclass	subphylum	superclass	superkingdom	superorder	videoArchiveName
population-quantity | self | 999	stationary	ripples	39.15	3149	 	http://search.mbari.org/ARCHIVE/frameGrabs/Ventana/images/3149/01_20_16_24.jpg	36.88406	-121.94996	2425521	5.3	2008-01-08 22:18:49.0	Ventana	33.451	01:20:16:24	11.387													V3149-01
population-quantity | self | 999	cruise	ripples	38.83	3149	 	 	36.884132	-121.94995	2425665	5.3	2008-01-08 22:25:11.0	Ventana	33.448	01:26:39:09	11.395													V3149-01
comment | self | Station G  traveling diagonally over cable waypoint  to verify cable is still buried; no trench vis	cruise	physical object	38.95	3149	 	 	36.884125	-121.94994	2425691	5.3	2008-01-08 22:26:25.0	Ventana	33.448	01:27:54:14	11.386													V3149-01
comment | self | probably clumps of Diopatra	cruise	Polychaeta	38.68	3149	 	 	36.884117	-121.949936	2425797	5.3	2008-01-08 22:26:45.0	Ventana	33.447	01:28:13:21	11.389	Polychaeta				Animalia		Annelida				Eukaryota		V3149-01
population-quantity | self | 999	cruise	ripples	38.5	3149	 	 	36.884113	-121.94993	2425834	5.3	2008-01-08 22:27:08.0	Ventana	33.449	01:28:36:07	11.393													V3149-01
comment | self | probably clumps of Diopatra	cruise	Polychaeta	38.52	3149	 	 	36.88411	-121.94992	2425840	5.3	2008-01-08 22:27:20.0	Ventana	33.449	01:28:48:26	11.393	Polychaeta				Animalia		Annelida				Eukaryota		V3149-01
comment | self | probably clumps of Diopatra	cruise	Polychaeta	38.96	3149	 	 	36.884094	-121.949905	2425864	5.29	2008-01-08 22:27:54.0	Ventana	33.448	01:29:22:23	11.383	Polychaeta				Animalia		Annelida				Eukaryota		V3149-01
identity-certainty | self | maybe	cruise	Phyllospadix	38.32	3149	 	 	36.884087	-121.94989	2425881	5.3	2008-01-08 22:28:18.0	Ventana	33.448	01:29:46:09	11.39		Zosteraceae	Phyllospadix		Plantae	Najadales					Eukaryota		V3149-01
comment | self | probably clumps of Diopatra	cruise	Polychaeta	38.63	3149	 	 	36.884212	-121.94999	2425924	5.3	2008-01-08 22:29:38.0	Ventana	33.449	01:31:06:16	11.396	Polychaeta				Animalia		Annelida				Eukaryota		V3149-01
population-quantity | self | 999	cruise	ripples	38.1	3149	 	 	36.88434	-121.950165	2426008	5.3	2008-01-08 22:31:31.0	Ventana	33.446	01:32:59:16	11.394													V3149-01
population-quantity | self | 999	cruise	ripples	38.44	3149	 	 	36.88437	-121.95014	2426013	5.29	2008-01-08 22:32:23.0	Ventana	33.446	01:33:51:15	11.384													V3149-01
population-quantity | self | 999	cruise	ripples	37.99	3149	 	 	36.884293	-121.950066	2426016	5.3	2008-01-08 22:33:07.0	Ventana	33.446	01:34:35:03	11.392													V3149-01
population-quantity | self | 999	cruise	ripples	38.66	3149	 	 	36.884163	-121.95	2426018	5.29	2008-01-08 22:33:46.0	Ventana	33.446	01:35:12:27	11.387													V3149-01
comment | self | Station G - Transect A, over cable route	starttransect	physical object	38.71	3149	21:02:09:24	 	36.88392	-121.949745	2426020	5.3	2008-01-08 22:37:45.0	Ventana	33.446	01:39:13:08	11.388													V3149-01
comment | self | probably clumps of Diopatra	transect	Polychaeta	38.88	3149	21:04:56:19	 	36.883835	-121.94948	2426089	5.29	2008-01-08 22:40:32.0	Ventana	33.445	01:41:59:14	11.387	Polychaeta				Animalia		Annelida				Eukaryota		V3149-01
comment | self | probably clumps of Diopatra	transect	Polychaeta	38.84	3149	21:05:08:19	 	36.88383	-121.94946	2426098	5.3	2008-01-08 22:40:44.0	Ventana	33.446	01:42:12:01	11.387	Polychaeta				Animalia		Annelida				Eukaryota		V3149-01
comment | self | probably clumps of Diopatra	transect	Polychaeta	38.9	3149	21:05:33:03	 	36.883823	-121.94943	2426105	5.3	2008-01-08 22:41:08.0	Ventana	33.445	01:42:34:22	11.385	Polychaeta				Animalia		Annelida				Eukaryota		V3149-01
comment | self | probably clumps of Diopatra	transect	Polychaeta	39.04	3149	21:07:57:14	 	36.883762	-121.94913	2426131	5.3	2008-01-08 22:43:33.0	Ventana	33.444	01:44:59:22	11.397	Polychaeta				Animalia		Annelida				Eukaryota		V3149-01
comment | self | probably clumps of Diopatra	transect	Polychaeta	39.02	3149	21:08:11:13	 	36.88376	-121.94909	2426132	5.3	2008-01-08 22:43:47.0	Ventana	33.446	01:45:14:06	11.394	Polychaeta				Animalia		Annelida				Eukaryota		V3149-01
comment | self | probably clumps of Diopatra	transect	Polychaeta	39.2	3149	21:08:47:27	 	36.88375	-121.94901	2426136	5.3	2008-01-08 22:44:23.0	Ventana	33.445	01:45:49:27	11.392	Polychaeta				Animalia		Annelida				Eukaryota		V3149-01
comment | self | probably clumps of Diopatra	transect	Polychaeta	39.08	3149	21:09:29:26	 	36.883778	-121.94909	2426144	5.3	2008-01-08 22:45:05.0	Ventana	33.445	01:46:32:09	11.39	Polychaeta				Animalia		Annelida				Eukaryota		V3149-01
comment | self | probably clumps of Diopatra	transect	Polychaeta	39.31	3149	21:09:41:25	 	36.883793	-121.94914	2426146	5.3	2008-01-08 22:45:17.0	Ventana	33.445	01:46:44:29	11.389	Polychaeta				Animalia		Annelida				Eukaryota		V3149-01
identity-certainty | self | maybe	transect	Pennatulacea	39.31	3149	21:09:41:25	 	36.883793	-121.94914	2426148	5.3	2008-01-08 22:45:17.0	Ventana	33.445	01:46:44:03	11.389	Anthozoa				Animalia	Pennatulacea	Cnidaria	Octocorallia			Eukaryota		V3149-01
comment | self | probably clumps of Diopatra	transect	Polychaeta	39.16	3149	21:09:49:25	 	36.8838	-121.94917	2426151	5.3	2008-01-08 22:45:25.0	Ventana	33.445	01:46:52:26	11.392	Polychaeta				Animalia		Annelida				Eukaryota		V3149-01
comment | self | probably clumps of Diopatra	transect	Polychaeta	38.8	3149	21:09:57:25	 	36.88381	-121.9492	2426155	5.3	2008-01-08 22:45:33.0	Ventana	33.445	01:46:59:17	11.392	Polychaeta				Animalia		Annelida				Eukaryota		V3149-01
comment | self | start Station G Transect B; 50 m parallel to cable	starttransect	physical object	39.68	3149	21:13:06:19	 	36.88395	-121.94967	2426160	5.3	2008-01-08 22:48:42.0	Ventana	33.445	01:50:10:05	11.389													V3149-01
comment | self | probably clumps of Diopatra	transect	Polychaeta	39.88	3149	21:13:21:03	 	36.883953	-121.94968	2426161	5.3	2008-01-08 22:48:56.0	Ventana	33.445	01:50:23:16	11.388	Polychaeta				Animalia		Annelida				Eukaryota		V3149-01
comment | self | probably clumps of Diopatra	transect	Polychaeta	40.04	3149	21:13:47:03	 	36.883957	-121.9497	2426167	5.3	2008-01-08 22:49:22.0	Ventana	33.445	01:50:50:01	11.39	Polychaeta				Animalia		Annelida				Eukaryota		V3149-01
identity-certainty | self | maybe	transect	Gastropoda	40.02	3149	21:14:15:02	 	36.88396	-121.94971	2426174	5.3	2008-01-08 22:49:51.0	Ventana	33.445	01:51:17:13	11.389	Gastropoda				Animalia		Mollusca				Eukaryota		V3149-01
comment | self | probably clumps of Diopatra	transect	Polychaeta	39.91	3149	21:14:23:01	 	36.88396	-121.94971	2426175	5.3	2008-01-08 22:49:59.0	Ventana	33.445	01:51:25:10	11.391	Polychaeta				Animalia		Annelida				Eukaryota		V3149-01
comment | self | probably clumps of Diopatra	transect	Polychaeta	39.7	3149	21:14:29:01	 	36.88396	-121.949715	2426176	5.3	2008-01-08 22:50:05.0	Ventana	33.445	01:51:31:13	11.391	Polychaeta				Animalia		Annelida				Eukaryota		V3149-01
comment | self | probably clumps of Diopatra	transect	Polychaeta	39.95	3149	21:14:57:00	 	36.88396	-121.949715	2426181	5.3	2008-01-08 22:50:33.0	Ventana	33.445	01:51:59:06	11.391	Polychaeta				Animalia		Annelida				Eukaryota		V3149-01
comment | self | probably clumps of Diopatra	transect	Polychaeta	39.84	3149	21:15:25:15	 	36.88396	-121.94972	2426183	5.3	2008-01-08 22:51:01.0	Ventana	33.445	01:52:28:21	11.388	Polychaeta				Animalia		Annelida				Eukaryota		V3149-01
comment | self | probably clumps of Diopatra	transect	Polychaeta	39.82	3149	21:15:39:14	 	36.883957	-121.94972	2426185	5.3	2008-01-08 22:51:15.0	Ventana	33.445	01:52:40:25	11.388	Polychaeta				Animalia		Annelida				Eukaryota		V3149-01
comment | self | probably clumps of Diopatra	transect	Polychaeta	40.08	3149	21:15:59:13	 	36.883953	-121.94972	2426187	5.3	2008-01-08 22:51:35.0	Ventana	33.445	01:53:02:04	11.389	Polychaeta				Animalia		Annelida				Eukaryota		V3149-01
comment | self | probably clumps of Diopatra	transect	Polychaeta	39.87	3149	21:16:33:28	 	36.88394	-121.94973	2426201	5.3	2008-01-08 22:52:09.0	Ventana	33.445	01:53:36:23	11.386	Polychaeta				Animalia		Annelida				Eukaryota		V3149-01
comment | self | probably clumps of Diopatra	transect	Polychaeta	39.89	3149	21:16:49:27	 	36.883934	-121.94973	2426205	5.3	2008-01-08 22:52:25.0	Ventana	33.445	01:53:52:29	11.385	Polychaeta				Animalia		Annelida				Eukaryota		V3149-01
comment | self | probably clumps of Diopatra	transect	Polychaeta	39.76	3149	21:16:57:26	 	36.88393	-121.94973	2426208	5.3	2008-01-08 22:52:33.0	Ventana	33.445	01:54:00:11	11.385	Polychaeta				Animalia		Annelida				Eukaryota		V3149-01
comment | self | probably clumps of Diopatra	transect	Polychaeta	39.62	3149	21:17:29:26	 	36.883907	-121.949745	2426227	5.3	2008-01-08 22:53:06.0	Ventana	33.445	01:54:32:01	11.388	Polychaeta				Animalia		Annelida				Eukaryota		V3149-01
comment | self | probably clumps of Diopatra	transect	Polychaeta	39.65	3149	21:18:06:10	 	36.88387	-121.94975	2426240	5.29	2008-01-08 22:53:42.0	Ventana	33.446	01:55:08:08	11.384	Polychaeta				Animalia		Annelida				Eukaryota		V3149-01
comment | self | probably clumps of Diopatra	transect	Polychaeta	39.46	3149	21:18:46:08	 	36.88382	-121.949776	2426262	5.3	2008-01-08 22:54:22.0	Ventana	33.444	01:55:47:22	11.399	Polychaeta				Animalia		Annelida				Eukaryota		V3149-01
comment | self | probably clumps of Diopatra	transect	Polychaeta	39.71	3149	21:18:56:08	 	36.8838	-121.94978	2426267	5.31	2008-01-08 22:54:32.0	Ventana	33.444	01:55:58:04	11.407	Polychaeta				Animalia		Annelida				Eukaryota		V3149-01
identity-certainty | self | maybe	transect	Gastropoda	39.46	3149	21:19:16:08	 	36.883766	-121.9498	2426276	5.32	2008-01-08 22:54:52.0	Ventana	33.443	01:56:18:19	11.412	Gastropoda				Animalia		Mollusca				Eukaryota		V3149-01
comment | self | probably clumps of Diopatra	transect	Polychaeta	39.59	3149	21:19:24:07	 	36.88375	-121.9498	2426281	5.31	2008-01-08 22:55:00.0	Ventana	33.442	01:56:26:28	11.409	Polychaeta				Animalia		Annelida				Eukaryota		V3149-01
 	transect	Gastropoda	39.96	3149	21:14:43:01	 	36.88396	-121.949715	2426178	5.3	2008-01-08 22:50:19.0	Ventana	33.445	01:51:44:25	11.392	Gastropoda				Animalia		Mollusca				Eukaryota		V3149-01
 	transect	Actiniaria	39.76	3149	21:17:07:27	http://search.mbari.org/ARCHIVE/frameGrabs/Ventana/images/3149/01_54_10_23.jpg	36.883923	-121.94974	2426215	5.3	2008-01-08 22:52:43.0	Ventana	33.446	01:54:10:23	11.388	Anthozoa				Animalia	Actiniaria	Cnidaria	Hexacorallia			Eukaryota		V3149-01
 	cruise	sand	38.11	3149	 	 	36.884373	-121.95016	2426012	5.3	2008-01-08 22:32:13.0	Ventana	33.446	01:33:41:19	11.388													V3149-01
 	transect	Pleuronectiformes	39.49	3149	21:17:25:26	 	36.88391	-121.94974	2426224	5.3	2008-01-08 22:53:02.0	Ventana	33.445	01:54:28:16	11.388	Osteichthyes			Neopterygii	Animalia	Pleuronectiformes	Chordata	Actinopterygii	Vertebrata	Gnathostomata	Eukaryota	Acanthopterygii	V3149-01
 	transect	Phyllospadix	39.16	3149	21:09:19:26	 	36.883762	-121.94904	2426141	5.3	2008-01-08 22:44:55.0	Ventana	33.445	01:46:21:25	11.39		Zosteraceae	Phyllospadix		Plantae	Najadales					Eukaryota		V3149-01
 	transect	Phyllospadix	39.16	3149	21:03:10:07	 	36.88388	-121.949646	2426030	5.29	2008-01-08 22:38:45.0	Ventana	33.446	01:40:12:11	11.383		Zosteraceae	Phyllospadix		Plantae	Najadales					Eukaryota		V3149-01
 	transect	Gastropoda	39.47	3149	21:19:20:07	 	36.88376	-121.9498	2426279	5.31	2008-01-08 22:54:56.0	Ventana	33.442	01:56:23:17	11.409	Gastropoda				Animalia		Mollusca				Eukaryota		V3149-01
 	transect	Actiniaria	38.95	3149	21:04:34:20	 	36.88384	-121.94951	2426076	5.3	2008-01-08 22:40:10.0	Ventana	33.446	01:41:37:04	11.385	Anthozoa				Animalia	Actiniaria	Cnidaria	Hexacorallia			Eukaryota		V3149-01
 	transect	Phyllospadix	39.91	3149	21:13:53:03	 	36.883957	-121.9497	2426168	5.3	2008-01-08 22:49:29.0	Ventana	33.445	01:50:55:19	11.389		Zosteraceae	Phyllospadix		Plantae	Najadales					Eukaryota		V3149-01
 	transect	Phyllospadix	39.91	3149	21:14:37:01	 	36.88396	-121.949715	2426177	5.3	2008-01-08 22:50:13.0	Ventana	33.445	01:51:39:21	11.392		Zosteraceae	Phyllospadix		Plantae	Najadales					Eukaryota		V3149-01
 	transect	Phyllospadix	39.15	3149	21:05:02:19	 	36.883835	-121.94947	2426094	5.3	2008-01-08 22:40:38.0	Ventana	33.446	01:42:04:22	11.387		Zosteraceae	Phyllospadix		Plantae	Najadales					Eukaryota		V3149-01
 	transect	Phyllospadix	39.08	3149	21:08:19:13	 	36.883755	-121.949066	2426133	5.3	2008-01-08 22:43:55.0	Ventana	33.445	01:45:23:01	11.392		Zosteraceae	Phyllospadix		Plantae	Najadales					Eukaryota		V3149-01
 	transect	Gastropoda	40.08	3149	21:13:57:02	 	36.883957	-121.9497	2426170	5.3	2008-01-08 22:49:33.0	Ventana	33.445	01:50:59:28	11.389	Gastropoda				Animalia		Mollusca				Eukaryota		V3149-01
 	transect	Osteichthyes	40.04	3149	21:14:47:01	 	36.88396	-121.949715	2426179	5.3	2008-01-08 22:50:23.0	Ventana	33.445	01:51:50:14	11.391	Osteichthyes				Animalia		Chordata		Vertebrata	Gnathostomata	Eukaryota		V3149-01
 	cruise	Laminariales	38.44	3149	 	 	36.884094	-121.9499	2425893	5.3	2008-01-08 22:28:40.0	Ventana	33.447	01:30:09:00	11.387	Phaeophyceae				Chromista	Laminariales	Phaeophycophyta				Eukaryota		V3149-01
 	transect	Pleuronectiformes	39.59	3149	21:16:05:13	 	36.88395	-121.94972	2426188	5.3	2008-01-08 22:51:41.0	Ventana	33.445	01:53:07:22	11.387	Osteichthyes			Neopterygii	Animalia	Pleuronectiformes	Chordata	Actinopterygii	Vertebrata	Gnathostomata	Eukaryota	Acanthopterygii	V3149-01
 	transect	Actiniaria	39.76	3149	21:16:29:27	 	36.88394	-121.94973	2426197	5.3	2008-01-08 22:52:05.0	Ventana	33.445	01:53:31:22	11.387	Anthozoa				Animalia	Actiniaria	Cnidaria	Hexacorallia			Eukaryota		V3149-01
 	transect	Gastropoda	38.94	3149	21:06:41:00	 	36.88378	-121.949326	2426123	5.3	2008-01-08 22:42:16.0	Ventana	33.445	01:43:43:06	11.391	Gastropoda				Animalia		Mollusca				Eukaryota		V3149-01
 	cruise	Gastropoda	38.39	3149	 	 	36.884193	-121.949974	2425920	5.29	2008-01-08 22:29:30.0	Ventana	33.448	01:30:58:03	11.385	Gastropoda				Animalia		Mollusca				Eukaryota		V3149-01
 	transect	Phyllospadix	40.06	3149	21:13:55:02	 	36.883957	-121.9497	2426169	5.3	2008-01-08 22:49:31.0	Ventana	33.445	01:50:58:08	11.389		Zosteraceae	Phyllospadix		Plantae	Najadales					Eukaryota		V3149-01
 	transect	Gastropoda	39.15	3149	21:04:18:20	 	36.883842	-121.94953	2426065	5.3	2008-01-08 22:39:54.0	Ventana	33.445	01:41:21:19	11.386	Gastropoda				Animalia		Mollusca				Eukaryota		V3149-01
 	transect	Gastropoda	38.76	3149	21:03:02:07	 	36.883884	-121.94966	2426028	5.3	2008-01-08 22:38:37.0	Ventana	33.446	01:40:04:11	11.385	Gastropoda				Animalia		Mollusca				Eukaryota		V3149-01
 	cruise	Gastropoda	38.57	3149	 	 	36.88414	-121.949936	2425908	5.29	2008-01-08 22:29:06.0	Ventana	33.447	01:30:34:15	11.385	Gastropoda				Animalia		Mollusca				Eukaryota		V3149-01
 	transect	Gastropoda	39.8	3149	21:13:37:03	 	36.883953	-121.94969	2426166	5.3	2008-01-08 22:49:12.0	Ventana	33.445	01:50:39:07	11.39	Gastropoda				Animalia		Mollusca				Eukaryota		V3149-01
 	transect	Actiniaria	39.02	3149	21:06:23:02	 	36.883797	-121.949356	2426120	5.3	2008-01-08 22:41:58.0	Ventana	33.445	01:43:26:09	11.389	Anthozoa				Animalia	Actiniaria	Cnidaria	Hexacorallia			Eukaryota		V3149-01
 	stationary	sand	39.15	3149	 	http://search.mbari.org/ARCHIVE/frameGrabs/Ventana/images/3149/01_20_16_24.jpg	36.88406	-121.94996	2425520	5.3	2008-01-08 22:18:49.0	Ventana	33.451	01:20:16:24	11.387													V3149-01
 	transect	Pleuronectiformes	38.9	3149	21:08:53:26	 	36.88375	-121.94901	2426138	5.3	2008-01-08 22:44:29.0	Ventana	33.445	01:45:55:06	11.392	Osteichthyes			Neopterygii	Animalia	Pleuronectiformes	Chordata	Actinopterygii	Vertebrata	Gnathostomata	Eukaryota	Acanthopterygii	V3149-01
 	cruise	Pennatulacea	38.11	3149	 	 	36.88429	-121.9501	2425944	5.29	2008-01-08 22:30:35.0	Ventana	33.447	01:32:03:00	11.385	Anthozoa				Animalia	Pennatulacea	Cnidaria	Octocorallia			Eukaryota		V3149-01
 	cruise	Gastropoda	38.69	3149	 	 	36.884094	-121.949905	2425861	5.3	2008-01-08 22:27:50.0	Ventana	33.448	01:29:18:23	11.384	Gastropoda				Animalia		Mollusca				Eukaryota		V3149-01
 	transect	Phyllospadix	39.77	3149	21:15:31:14	 	36.883957	-121.94972	2426184	5.3	2008-01-08 22:51:07.0	Ventana	33.445	01:52:34:16	11.388		Zosteraceae	Phyllospadix		Plantae	Najadales					Eukaryota		V3149-01
 	transect	Phyllospadix	39.25	3149	21:04:16:20	 	36.883842	-121.94953	2426064	5.29	2008-01-08 22:39:52.0	Ventana	33.446	01:41:19:22	11.386		Zosteraceae	Phyllospadix		Plantae	Najadales					Eukaryota		V3149-01
 	transect	Actiniaria	39.57	3149	21:18:42:09	 	36.883823	-121.949776	2426260	5.3	2008-01-08 22:54:18.0	Ventana	33.444	01:55:44:22	11.399	Anthozoa				Animalia	Actiniaria	Cnidaria	Hexacorallia			Eukaryota		V3149-01
 	transect	Phyllospadix	39.16	3149	21:09:19:26	 	36.883762	-121.94904	2426140	5.3	2008-01-08 22:44:55.0	Ventana	33.445	01:46:21:12	11.39		Zosteraceae	Phyllospadix		Plantae	Najadales					Eukaryota		V3149-01
 	cruise	Gastropoda	38.86	3149	 	 	36.884094	-121.949905	2425863	5.3	2008-01-08 22:27:52.0	Ventana	33.448	01:29:20:00	11.384	Gastropoda				Animalia		Mollusca				Eukaryota		V3149-01
 	transect	Gastropoda	39.71	3149	21:15:55:14	 	36.883953	-121.94972	2426186	5.3	2008-01-08 22:51:31.0	Ventana	33.445	01:52:57:09	11.389	Gastropoda				Animalia		Mollusca				Eukaryota		V3149-01
 	transect	Actiniaria	39.59	3149	21:18:58:08	 	36.8838	-121.94978	2426269	5.31	2008-01-08 22:54:34.0	Ventana	33.444	01:56:00:25	11.407	Anthozoa				Animalia	Actiniaria	Cnidaria	Hexacorallia			Eukaryota		V3149-01
 	transect	Gastropoda	39.71	3149	21:16:27:28	 	36.883945	-121.94973	2426195	5.3	2008-01-08 22:52:03.0	Ventana	33.445	01:53:30:24	11.387	Gastropoda				Animalia		Mollusca				Eukaryota		V3149-01
 	transect	Phyllospadix	39.78	3149	21:18:07:24	 	36.88387	-121.94976	2426241	5.29	2008-01-08 22:53:44.0	Ventana	33.446	01:55:11:00	11.384		Zosteraceae	Phyllospadix		Plantae	Najadales					Eukaryota		V3149-01
 	transect	Gastropoda	39.81	3149	21:16:47:27	 	36.883934	-121.94973	2426204	5.3	2008-01-08 22:52:23.0	Ventana	33.445	01:53:50:18	11.385	Gastropoda				Animalia		Mollusca				Eukaryota		V3149-01
 	transect	Actiniaria	39.04	3149	21:07:49:14	 	36.883762	-121.94915	2426130	5.3	2008-01-08 22:43:25.0	Ventana	33.444	01:44:52:13	11.397	Anthozoa				Animalia	Actiniaria	Cnidaria	Hexacorallia			Eukaryota		V3149-01
 	transect	Pleuronectiformes	39.78	3149	21:18:24:09	 	36.88385	-121.94976	2426250	5.3	2008-01-08 22:54:00.0	Ventana	33.445	01:55:27:13	11.386	Osteichthyes			Neopterygii	Animalia	Pleuronectiformes	Chordata	Actinopterygii	Vertebrata	Gnathostomata	Eukaryota	Acanthopterygii	V3149-01
 	cruise	Pennatulacea	38.72	3149	 	 	36.884106	-121.94992	2425844	5.3	2008-01-08 22:27:26.0	Ventana	33.447	01:28:53:22	11.39	Anthozoa				Animalia	Pennatulacea	Cnidaria	Octocorallia			Eukaryota		V3149-01
 	stationary	sand	39.06	3149	 	 	36.883945	-121.94982	2426019	5.3	2008-01-08 22:35:52.0	Ventana	33.446	01:37:19:12	11.388													V3149-01
 	transect	Phyllospadix	39.23	3149	21:09:17:26	 	36.88376	-121.949036	2426139	5.3	2008-01-08 22:44:53.0	Ventana	33.445	01:46:20:07	11.39		Zosteraceae	Phyllospadix		Plantae	Najadales					Eukaryota		V3149-01
 	transect	Pennatulacea	38.86	3149	21:03:20:07	 	36.883877	-121.94963	2426035	5.3	2008-01-08 22:38:55.0	Ventana	33.445	01:40:23:14	11.385	Anthozoa				Animalia	Pennatulacea	Cnidaria	Octocorallia			Eukaryota		V3149-01
 	transect	Phyllospadix	38.95	3149	21:04:44:19	 	36.883835	-121.94949	2426081	5.3	2008-01-08 22:40:20.0	Ventana	33.446	01:41:47:20	11.385		Zosteraceae	Phyllospadix		Plantae	Najadales					Eukaryota		V3149-01
 	transect	Gastropoda	39.91	3149	21:13:27:03	 	36.883953	-121.949684	2426164	5.3	2008-01-08 22:49:02.0	Ventana	33.445	01:50:30:00	11.388	Gastropoda				Animalia		Mollusca				Eukaryota		V3149-01
 	transect	Laminariales	39.0	3149	21:07:25:14	 	36.883766	-121.94923	2426127	5.3	2008-01-08 22:43:00.0	Ventana	33.446	01:44:26:22	11.389	Phaeophyceae				Chromista	Laminariales	Phaeophycophyta				Eukaryota		V3149-01
 	ascend	water	36.79	3149	21:20:32:20	 	36.883614	-121.94985	2426293	 	2008-01-08 22:56:09.0	Ventana	 	01:57:34:16	 													V3149-01
 	transect	Phyllospadix	39.9	3149	21:14:05:02	 	36.88396	-121.94971	2426173	5.3	2008-01-08 22:49:41.0	Ventana	33.445	01:51:08:01	11.389		Zosteraceae	Phyllospadix		Plantae	Najadales					Eukaryota		V3149-01
 	transect	Phyllospadix	38.92	3149	21:09:31:26	 	36.883778	-121.9491	2426145	5.3	2008-01-08 22:45:07.0	Ventana	33.445	01:46:34:28	11.39		Zosteraceae	Phyllospadix		Plantae	Najadales					Eukaryota		V3149-01
 	transect	Pleuronectiformes	39.15	3149	21:02:34:08	 	36.883904	-121.94971	2426025	5.29	2008-01-08 22:38:09.0	Ventana	33.446	01:39:37:01	11.387	Osteichthyes			Neopterygii	Animalia	Pleuronectiformes	Chordata	Actinopterygii	Vertebrata	Gnathostomata	Eukaryota	Acanthopterygii	V3149-01
 	transect	Phyllospadix	39.88	3149	21:17:31:25	 	36.883904	-121.949745	2426228	5.3	2008-01-08 22:53:08.0	Ventana	33.445	01:54:34:03	11.39		Zosteraceae	Phyllospadix		Plantae	Najadales					Eukaryota		V3149-01
 	transect	Pleuronectiformes	39.88	3149	21:15:01:15	 	36.88396	-121.949715	2426182	5.3	2008-01-08 22:50:37.0	Ventana	33.445	01:52:03:23	11.391	Osteichthyes			Neopterygii	Animalia	Pleuronectiformes	Chordata	Actinopterygii	Vertebrata	Gnathostomata	Eukaryota	Acanthopterygii	V3149-01
 	transect	Phyllospadix	38.98	3149	21:06:11:02	 	36.883804	-121.94938	2426117	5.3	2008-01-08 22:41:46.0	Ventana	33.446	01:43:14:22	11.39		Zosteraceae	Phyllospadix		Plantae	Najadales					Eukaryota		V3149-01
 	transect	Actiniaria	39.16	3149	21:09:49:25	 	36.8838	-121.94917	2426154	5.3	2008-01-08 22:45:25.0	Ventana	33.445	01:46:52:21	11.392	Anthozoa				Animalia	Actiniaria	Cnidaria	Hexacorallia			Eukaryota		V3149-01
 	cruise	sand	38.6	3149	 	 	36.884113	-121.94993	2425831	5.3	2008-01-08 22:27:06.0	Ventana	33.448	01:28:33:24	11.387													V3149-01
 	transect	Gastropoda	38.83	3149	21:02:44:08	 	36.883896	-121.94969	2426027	5.29	2008-01-08 22:38:19.0	Ventana	33.446	01:39:46:19	11.387	Gastropoda				Animalia		Mollusca				Eukaryota		V3149-01
 	transect	Gastropoda	39.05	3149	21:06:01:02	 	36.88381	-121.949394	2426110	5.3	2008-01-08 22:41:36.0	Ventana	33.446	01:43:04:13	11.386	Gastropoda				Animalia		Mollusca				Eukaryota		V3149-01
 	cruise	Pennatulacea	38.31	3149	 	 	36.884304	-121.95013	2425953	5.29	2008-01-08 22:30:47.0	Ventana	33.447	01:32:15:21	11.382	Anthozoa				Animalia	Pennatulacea	Cnidaria	Octocorallia			Eukaryota		V3149-01
 	transect	Phyllospadix	39.7	3149	21:13:29:03	 	36.883953	-121.949684	2426165	5.3	2008-01-08 22:49:04.0	Ventana	33.445	01:50:32:07	11.388		Zosteraceae	Phyllospadix		Plantae	Najadales					Eukaryota		V3149-01
 	transect	Phyllospadix	39.77	3149	21:16:39:27	 	36.883938	-121.94973	2426202	5.3	2008-01-08 22:52:15.0	Ventana	33.445	01:53:42:17	11.386		Zosteraceae	Phyllospadix		Plantae	Najadales					Eukaryota		V3149-01
 	cruise	Phyllospadix	38.76	3149	 	 	36.88412	-121.949936	2425796	5.3	2008-01-08 22:26:41.0	Ventana	33.447	01:28:09:19	11.389		Zosteraceae	Phyllospadix		Plantae	Najadales					Eukaryota		V3149-01
 	transect	Actiniaria	39.31	3149	21:07:31:14	 	36.883766	-121.94921	2426128	5.3	2008-01-08 22:43:07.0	Ventana	33.446	01:44:33:10	11.389	Anthozoa				Animalia	Actiniaria	Cnidaria	Hexacorallia			Eukaryota		V3149-01
 	transect	Phyllospadix	39.91	3149	21:17:05:26	 	36.883926	-121.94974	2426211	5.3	2008-01-08 22:52:41.0	Ventana	33.446	01:54:08:15	11.388		Zosteraceae	Phyllospadix		Plantae	Najadales					Eukaryota		V3149-01
 	cruise	Gastropoda	38.73	3149	 	 	36.884216	-121.94999	2425925	5.3	2008-01-08 22:29:40.0	Ventana	33.449	01:31:09:11	11.396	Gastropoda				Animalia		Mollusca				Eukaryota		V3149-01
 	transect	Phyllospadix	38.98	3149	21:04:04:21	 	36.88385	-121.949554	2426054	5.29	2008-01-08 22:39:39.0	Ventana	33.446	01:41:07:00	11.386		Zosteraceae	Phyllospadix		Plantae	Najadales					Eukaryota		V3149-01
 	cruise	Actiniaria	38.63	3149	 	 	36.884087	-121.94989	2425888	5.29	2008-01-08 22:28:32.0	Ventana	33.448	01:29:59:15	11.385	Anthozoa				Animalia	Actiniaria	Cnidaria	Hexacorallia			Eukaryota		V3149-01
 	cruise	Gastropoda	38.6	3149	 	 	36.884106	-121.949905	2425897	5.3	2008-01-08 22:28:48.0	Ventana	33.447	01:30:15:25	11.387	Gastropoda				Animalia		Mollusca				Eukaryota		V3149-01
 	cruise	Gastropoda	38.76	3149	 	 	36.88412	-121.949936	2425694	5.3	2008-01-08 22:26:33.0	Ventana	33.448	01:28:00:25	11.386	Gastropoda				Animalia		Mollusca				Eukaryota		V3149-01
 	transect	Pleuronectiformes	39.0	3149	21:08:49:27	 	36.88375	-121.94901	2426137	5.3	2008-01-08 22:44:25.0	Ventana	33.445	01:45:52:01	11.392	Osteichthyes			Neopterygii	Animalia	Pleuronectiformes	Chordata	Actinopterygii	Vertebrata	Gnathostomata	Eukaryota	Acanthopterygii	V3149-01
 	cruise	sand	38.75	3149	 	 	36.884167	-121.950005	2426017	5.29	2008-01-08 22:33:44.0	Ventana	33.446	01:35:10:24	11.387													V3149-01
 	transect	Pennatulacea	39.15	3149	21:02:34:08	 	36.883904	-121.94971	2426026	5.29	2008-01-08 22:38:09.0	Ventana	33.446	01:39:37:01	11.387	Anthozoa				Animalia	Pennatulacea	Cnidaria	Octocorallia			Eukaryota		V3149-01
 	cruise	Gastropoda	38.69	3149	 	 	36.884094	-121.949905	2425860	5.3	2008-01-08 22:27:50.0	Ventana	33.448	01:29:17:16	11.384	Gastropoda				Animalia		Mollusca				Eukaryota		V3149-01
 	transect	Phyllospadix	39.66	3149	21:16:17:13	 	36.88395	-121.94972	2426192	5.3	2008-01-08 22:51:53.0	Ventana	33.445	01:53:19:17	11.387		Zosteraceae	Phyllospadix		Plantae	Najadales					Eukaryota		V3149-01
 	transect	Pennatulacea	39.75	3149	21:18:12:09	 	36.883865	-121.94976	2426245	5.29	2008-01-08 22:53:48.0	Ventana	33.446	01:55:14:18	11.384	Anthozoa				Animalia	Pennatulacea	Cnidaria	Octocorallia			Eukaryota		V3149-01
 	transect	Phyllospadix	39.52	3149	21:18:30:09	 	36.883842	-121.94977	2426254	5.3	2008-01-08 22:54:06.0	Ventana	33.445	01:55:31:26	11.386		Zosteraceae	Phyllospadix		Plantae	Najadales					Eukaryota		V3149-01
 	endtransect	object	39.96	3149	21:19:44:21	 	36.883713	-121.949814	2426291	5.32	2008-01-08 22:55:20.0	Ventana	33.443	01:56:46:02	11.412													V3149-01
 	transect	Gastropoda	40.08	3149	21:13:57:02	 	36.883957	-121.9497	2426171	5.3	2008-01-08 22:49:33.0	Ventana	33.445	01:51:00:13	11.389	Gastropoda				Animalia		Mollusca				Eukaryota		V3149-01
 	transect	Gastropoda	39.9	3149	21:14:55:15	 	36.88396	-121.949715	2426180	5.3	2008-01-08 22:50:31.0	Ventana	33.445	01:51:56:25	11.391	Gastropoda				Animalia		Mollusca				Eukaryota		V3149-01
 	transect	Gastropoda	39.02	3149	21:02:19:24	http://search.mbari.org/ARCHIVE/frameGrabs/Ventana/images/3149/01_39_22_16.jpg	36.88391	-121.94973	2426023	5.29	2008-01-08 22:37:55.0	Ventana	33.447	01:39:22:16	11.386	Gastropoda				Animalia		Mollusca				Eukaryota		V3149-01
 	transect	Pleuronectiformes	39.59	3149	21:19:08:08	 	36.88378	-121.94979	2426272	5.32	2008-01-08 22:54:44.0	Ventana	33.443	01:56:10:21	11.412	Osteichthyes			Neopterygii	Animalia	Pleuronectiformes	Chordata	Actinopterygii	Vertebrata	Gnathostomata	Eukaryota	Acanthopterygii	V3149-01
 	cruise	Gastropoda	38.69	3149	 	 	36.88412	-121.94992	2425903	5.29	2008-01-08 22:28:58.0	Ventana	33.447	01:30:26:17	11.385	Gastropoda				Animalia		Mollusca				Eukaryota		V3149-01
 	cruise	Gastropoda	38.41	3149	 	 	36.884155	-121.94994	2425912	5.29	2008-01-08 22:29:14.0	Ventana	33.447	01:30:42:01	11.384	Gastropoda				Animalia		Mollusca				Eukaryota		V3149-01
 	transect	Asteroidea	39.02	3149	21:06:07:02	 	36.883804	-121.94938	2426115	5.3	2008-01-08 22:41:42.0	Ventana	33.446	01:43:09:03	11.39					Animalia		Echinodermata	Asteroidea			Eukaryota		V3149-01
 	transect	Pennatulacea	39.13	3149	21:09:47:25	 	36.883797	-121.949165	2426152	5.3	2008-01-08 22:45:23.0	Ventana	33.445	01:46:51:06	11.392	Anthozoa				Animalia	Pennatulacea	Cnidaria	Octocorallia			Eukaryota		V3149-01
 	transect	Laminariales	39.76	3149	21:16:29:27	 	36.88394	-121.94973	2426198	5.3	2008-01-08 22:52:05.0	Ventana	33.445	01:53:31:22	11.387	Phaeophyceae				Chromista	Laminariales	Phaeophycophyta				Eukaryota		V3149-01
 	transect	Phyllospadix	39.01	3149	21:06:43:01	 	36.88378	-121.949326	2426124	5.3	2008-01-08 22:42:18.0	Ventana	33.445	01:43:46:19	11.391		Zosteraceae	Phyllospadix		Plantae	Najadales					Eukaryota		V3149-01
 	transect	Phyllospadix	40.17	3149	21:13:25:03	 	36.883953	-121.949684	2426163	5.3	2008-01-08 22:49:00.0	Ventana	33.445	01:50:27:29	11.388		Zosteraceae	Phyllospadix		Plantae	Najadales					Eukaryota		V3149-01
 	cruise	sand	38.03	3149	 	 	36.884335	-121.950165	2426006	5.3	2008-01-08 22:31:27.0	Ventana	33.446	01:32:54:01	11.394													V3149-01
 	cruise	Gastropoda	38.45	3149	 	 	36.884087	-121.94989	2425886	5.29	2008-01-08 22:28:26.0	Ventana	33.448	01:29:54:05	11.385	Gastropoda				Animalia		Mollusca				Eukaryota		V3149-01
 	transect	Phyllospadix	39.02	3149	21:08:39:27	 	36.88375	-121.94903	2426135	5.3	2008-01-08 22:44:15.0	Ventana	33.445	01:45:43:01	11.393		Zosteraceae	Phyllospadix		Plantae	Najadales					Eukaryota		V3149-01
 	transect	Phyllospadix	39.82	3149	21:14:01:02	 	36.88396	-121.9497	2426172	5.3	2008-01-08 22:49:37.0	Ventana	33.445	01:51:03:23	11.389		Zosteraceae	Phyllospadix		Plantae	Najadales					Eukaryota		V3149-01
 	cruise	sand	38.06	3149	 	 	36.8843	-121.95007	2426015	5.3	2008-01-08 22:33:05.0	Ventana	33.446	01:34:32:12	11.392													V3149-01
 	transect	Pennatulacea	39.59	3149	21:18:52:08	 	36.88381	-121.94978	2426264	5.31	2008-01-08 22:54:28.0	Ventana	33.444	01:55:54:21	11.407	Anthozoa				Animalia	Pennatulacea	Cnidaria	Octocorallia			Eukaryota		V3149-01
 	transect	Gastropoda	39.15	3149	21:04:14:20	 	36.883846	-121.94954	2426061	5.29	2008-01-08 22:39:50.0	Ventana	33.446	01:41:16:06	11.386	Gastropoda				Animalia		Mollusca				Eukaryota		V3149-01
 	cruise	Pleuronectiformes	38.47	3149	 	 	36.88428	-121.950096	2425941	5.29	2008-01-08 22:30:29.0	Ventana	33.447	01:31:56:19	11.385	Osteichthyes			Neopterygii	Animalia	Pleuronectiformes	Chordata	Actinopterygii	Vertebrata	Gnathostomata	Eukaryota	Acanthopterygii	V3149-01
 	transect	Pleuronectiformes	39.98	3149	21:16:11:13	 	36.88395	-121.94972	2426190	5.3	2008-01-08 22:51:47.0	Ventana	33.445	01:53:13:10	11.387	Osteichthyes			Neopterygii	Animalia	Pleuronectiformes	Chordata	Actinopterygii	Vertebrata	Gnathostomata	Eukaryota	Acanthopterygii	V3149-01
 	cruise	sand	38.7	3149	 	 	36.884132	-121.94995	2425664	5.3	2008-01-08 22:25:09.0	Ventana	33.448	01:26:37:00	11.395													V3149-01
 	transect	Pennatulacea	39.13	3149	21:09:47:25	 	36.883797	-121.949165	2426153	5.3	2008-01-08 22:45:23.0	Ventana	33.445	01:46:51:06	11.392	Anthozoa				Animalia	Pennatulacea	Cnidaria	Octocorallia			Eukaryota		V3149-01
 	transect	Gastropoda	39.15	3149	21:03:40:21	 	36.883865	-121.94959	2426042	5.3	2008-01-08 22:39:15.0	Ventana	33.446	01:40:42:20	11.385	Gastropoda				Animalia		Mollusca				Eukaryota		V3149-01
 	cruise	Pennatulacea	38.3	3149	 	 	36.884087	-121.9499	2425876	5.3	2008-01-08 22:28:12.0	Ventana	33.448	01:29:40:14	11.39	Anthozoa				Animalia	Pennatulacea	Cnidaria	Octocorallia			Eukaryota		V3149-01
